Time;durP1;ratioP1;P1;durP2;ratioP2;P2;SDS_P1;SDS_P2;PMS_P1;PMS_P2;Temp;Humidity;BMP_temperature;BMP_pressure;BME280_temperature;BME280_humidity;BME280_pressure;Samples;Min_cycle;Max_cycle;Signal;HPM_P1;HPM_P2
2023/03/10 00:01:22;;;;;;;;;;;;;;;;;;5054269;28;19908;-24
2023/03/10 00:03:48;;;;;;;;;;;;;;;;;;5052962;28;19923;-24
2023/03/10 00:06:14;;;;;;;;;;;;;;;;;;5054603;28;19917;-24
2023/03/10 00:08:40;;;;;;;;;;;;;;;;;;5058217;28;19909;-24
2023/03/10 00:11:06;;;;;;;;;;;;;;;;;;5058488;28;20003;-24
2023/03/10 00:13:32;;;;;;;;;;;;;;;;;;5058145;28;19916;-24
2023/03/10 00:15:58;;;;;;;;;;;;;;;;;;5058129;28;20319;-24
2023/03/10 00:18:24;;;;;;;;;;;;;;;;;;5057997;28;19917;-24
2023/03/10 00:20:50;;;;;;;;;;;;;;;;;;5058015;28;20023;-24
2023/03/10 00:23:16;;;;;;;;;;;;;;;;;;5057897;28;19909;-24
2023/03/10 00:25:42;;;;;;;;;;;;;;;;;;5057871;28;20228;-24
2023/03/10 00:28:08;;;;;;;;;;;;;;;;;;5057857;28;19966;-24
2023/03/10 00:30:34;;;;;;;;;;;;;;;;;;5057856;28;19909;-24
2023/03/10 00:33:00;;;;;;;;;;;;;;;;;;5057649;28;19962;-24
2023/03/10 00:35:26;;;;;;;;;;;;;;;;;;5057721;28;19909;-24
2023/03/10 00:37:52;;;;;;;;;;;;;;;;;;5057896;28;19912;-24
2023/03/10 00:40:18;;;;;;;;;;;;;;;;;;5057933;28;19996;-24
2023/03/10 00:42:44;;;;;;;;;;;;;;;;;;5057559;28;19908;-24
2023/03/10 00:45:10;;;;;;;;;;;;;;;;;;5057587;28;19987;-24
2023/03/10 00:47:36;;;;;;;;;;;;;;;;;;5057547;28;20003;-24
2023/03/10 00:50:02;;;;;;;;;;;;;;;;;;5057535;28;19913;-24
2023/03/10 00:52:29;;;;;;;;;;;;;;;;;;5057382;28;19932;-24
2023/03/10 00:54:55;;;;;;;;;;;;;;;;;;5057587;28;20000;-24
2023/03/10 00:57:21;;;;;;;;;;;;;;;;;;5057346;28;19917;-24
2023/03/10 00:59:47;;;;;;;;;;;;;;;;;;5057209;28;20382;-24
2023/03/10 01:02:13;;;;;;;;;;;;;;;;;;5057416;28;19908;-24
2023/03/10 01:04:39;;;;;;;;;;;;;;;;;;5057082;28;20007;-24
2023/03/10 01:07:05;;;;;;;;;;;;;;;;;;5057372;28;19920;-24
2023/03/10 01:09:31;;;;;;;;;;;;;;;;;;5057118;28;20254;-24
2023/03/10 01:11:57;;;;;;;;;;;;;;;;;;5056938;28;19975;-24
2023/03/10 01:14:23;;;;;;;;;;;;;;;;;;5056966;28;19909;-24
2023/03/10 01:16:49;;;;;;;;;;;;;;;;;;5057255;28;20334;-24
2023/03/10 01:19:17;;;;;;;;;;;;;;;;;;5056100;28;20015;-24
2023/03/10 01:21:42;;;;;;;;;;;;;;;;;;5056890;28;19917;-24
2023/03/10 01:24:08;;;;;;;;;;;;;;;;;;5056782;28;19986;-24
2023/03/10 01:26:34;;;;;;;;;;;;;;;;;;5057092;28;19909;-24
2023/03/10 01:29:00;;;;;;;;;;;;;;;;;;5056807;28;20378;-24
2023/03/10 01:31:26;;;;;;;;;;;;;;;;;;5056739;28;19920;-24
2023/03/10 01:33:52;;;;;;;;;;;;;;;;;;5056897;28;19909;-24
2023/03/10 01:36:18;;;;;;;;;;;;;;;;;;5056656;28;20339;-24
2023/03/10 01:38:44;;;;;;;;;;;;;;;;;;5056754;28;19983;-24
2023/03/10 01:41:10;;;;;;;;;;;;;;;;;;5056532;28;19963;-24
2023/03/10 01:43:36;;;;;;;;;;;;;;;;;;5056377;28;19909;-24
2023/03/10 01:46:02;;;;;;;;;;;;;;;;;;5056458;28;20336;-24
2023/03/10 01:48:28;;;;;;;;;;;;;;;;;;5056343;28;19920;-24
2023/03/10 01:50:54;;;;;;;;;;;;;;;;;;5056333;28;19944;-25
2023/03/10 01:53:20;;;;;;;;;;;;;;;;;;5056261;28;19916;-24
2023/03/10 01:55:46;;;;;;;;;;;;;;;;;;5056206;28;19909;-24
2023/03/10 01:58:12;;;;;;;;;;;;;;;;;;5056156;28;19971;-24
2023/03/10 02:00:38;;;;;;;;;;;;;;;;;;5056199;28;19915;-24
2023/03/10 02:03:07;;;;;;;;;;;;;;;;;;5056327;28;19915;-24
2023/03/10 02:05:33;;;;;;;;;;;;;;;;;;5054892;28;20264;-24
2023/03/10 02:07:59;;;;;;;;;;;;;;;;;;5055025;28;19942;-24
2023/03/10 02:10:25;;;;;;;;;;;;;;;;;;5054960;28;19920;-24
2023/03/10 02:12:50;;;;;;;;;;;;;;;;;;5055865;28;19909;-24
2023/03/10 02:15:16;;;;;;;;;;;;;;;;;;5055854;28;20066;-24
2023/03/10 02:17:42;;;;;;;;;;;;;;;;;;5056027;28;19919;-24
2023/03/10 02:20:08;;;;;;;;;;;;;;;;;;5055787;28;20131;-24
2023/03/10 02:22:34;;;;;;;;;;;;;;;;;;5055713;28;19962;-24
2023/03/10 02:25:00;;;;;;;;;;;;;;;;;;5055952;28;19991;-24
2023/03/10 02:27:26;;;;;;;;;;;;;;;;;;5055651;28;19933;-24
2023/03/10 02:29:52;;;;;;;;;;;;;;;;;;5055472;28;20279;-24
2023/03/10 02:32:18;;;;;;;;;;;;;;;;;;5055480;28;19909;-24
2023/03/10 02:34:44;;;;;;;;;;;;;;;;;;5055505;28;19909;-24
2023/03/10 02:37:10;;;;;;;;;;;;;;;;;;5055465;28;20007;-24
2023/03/10 02:39:36;;;;;;;;;;;;;;;;;;5054313;28;20007;-24
2023/03/10 02:42:03;;;;;;;;;;;;;;;;;;5054368;28;19970;-24
2023/03/10 02:44:29;;;;;;;;;;;;;;;;;;5054311;28;19919;-24
2023/03/10 02:46:54;;;;;;;;;;;;;;;;;;5055286;28;19935;-24
2023/03/10 02:49:20;;;;;;;;;;;;;;;;;;5055246;28;20003;-24
2023/03/10 02:51:47;;;;;;;;;;;;;;;;;;5055130;28;19920;-24
2023/03/10 02:54:12;;;;;;;;;;;;;;;;;;5055131;28;20054;-24
2023/03/10 02:56:39;;;;;;;;;;;;;;;;;;5055349;28;19944;-24
2023/03/10 02:59:05;;;;;;;;;;;;;;;;;;5054986;28;19913;-24
2023/03/10 03:01:31;;;;;;;;;;;;;;;;;;5055043;28;20306;-24
2023/03/10 03:03:57;;;;;;;;;;;;;;;;;;5054727;28;19917;-24
2023/03/10 03:06:23;;;;;;;;;;;;;;;;;;5054909;28;20406;-24
2023/03/10 03:08:49;;;;;;;;;;;;;;;;;;5055132;28;19916;-24
2023/03/10 03:11:15;;;;;;;;;;;;;;;;;;5054858;28;19916;-24
2023/03/10 03:13:41;;;;;;;;;;;;;;;;;;5055030;28;19915;-24
2023/03/10 03:16:07;;;;;;;;;;;;;;;;;;5054761;28;20340;-24
2023/03/10 03:18:33;;;;;;;;;;;;;;;;;;5054706;28;20011;-24
2023/03/10 03:20:59;;;;;;;;;;;;;;;;;;5054765;28;19912;-25
2023/03/10 03:23:25;;;;;;;;;;;;;;;;;;5054795;28;19999;-24
2023/03/10 03:25:51;;;;;;;;;;;;;;;;;;5054976;28;19913;-25
2023/03/10 03:28:17;;;;;;;;;;;;;;;;;;5054912;28;20104;-24
2023/03/10 03:30:43;;;;;;;;;;;;;;;;;;5054582;28;19909;-24
2023/03/10 03:33:09;;;;;;;;;;;;;;;;;;5054581;28;19920;-24
2023/03/10 03:35:34;;;;;;;;;;;;;;;;;;5054878;28;19909;-24
2023/03/10 03:38:01;;;;;;;;;;;;;;;;;;5054512;28;20401;-24
2023/03/10 03:40:26;;;;;;;;;;;;;;;;;;5054511;28;20004;-28
2023/03/10 03:42:52;;;;;;;;;;;;;;;;;;5052911;28;20320;-24
2023/03/10 03:45:18;;;;;;;;;;;;;;;;;;5054476;28;19909;-24
2023/03/10 03:47:44;;;;;;;;;;;;;;;;;;5054476;28;19999;-24
2023/03/10 03:50:10;;;;;;;;;;;;;;;;;;5054381;28;19923;-24
2023/03/10 03:52:36;;;;;;;;;;;;;;;;;;5054324;28;19908;-24
2023/03/10 03:55:03;;;;;;;;;;;;;;;;;;5054355;28;19919;-24
2023/03/10 03:57:29;;;;;;;;;;;;;;;;;;5054336;28;19970;-24
2023/03/10 03:59:55;;;;;;;;;;;;;;;;;;5054270;28;19918;-24
2023/03/10 04:02:21;;;;;;;;;;;;;;;;;;5054258;28;19909;-24
2023/03/10 04:04:46;;;;;;;;;;;;;;;;;;5054088;28;20393;-24
2023/03/10 04:07:13;;;;;;;;;;;;;;;;;;5054233;28;20055;-24
2023/03/10 04:09:39;;;;;;;;;;;;;;;;;;5053195;28;19971;-24
2023/03/10 04:12:05;;;;;;;;;;;;;;;;;;5054079;28;20251;-24
2023/03/10 04:14:31;;;;;;;;;;;;;;;;;;5054404;28;19952;-24
2023/03/10 04:16:57;;;;;;;;;;;;;;;;;;5053147;28;20312;-24
2023/03/10 04:19:23;;;;;;;;;;;;;;;;;;5054091;28;19928;-24
2023/03/10 04:21:49;;;;;;;;;;;;;;;;;;5054073;28;20321;-24
2023/03/10 04:24:15;;;;;;;;;;;;;;;;;;5054085;28;20019;-24
2023/03/10 04:26:41;;;;;;;;;;;;;;;;;;5054068;28;20347;-24
2023/03/10 04:29:07;;;;;;;;;;;;;;;;;;5054016;28;20248;-24
2023/03/10 04:31:33;;;;;;;;;;;;;;;;;;5054023;28;19909;-24
2023/03/10 04:33:59;;;;;;;;;;;;;;;;;;5054136;28;19921;-24
2023/03/10 04:36:25;;;;;;;;;;;;;;;;;;5053932;28;19932;-24
2023/03/10 04:38:51;;;;;;;;;;;;;;;;;;5053818;28;19920;-24
2023/03/10 04:41:16;;;;;;;;;;;;;;;;;;5053813;28;20401;-24
2023/03/10 04:43:42;;;;;;;;;;;;;;;;;;5053738;28;19909;-24
2023/03/10 04:46:08;;;;;;;;;;;;;;;;;;5054018;28;19916;-24
2023/03/10 04:48:34;;;;;;;;;;;;;;;;;;5052635;28;20295;-24
2023/03/10 04:51:00;;;;;;;;;;;;;;;;;;5053654;28;19916;-24
2023/03/10 04:53:26;;;;;;;;;;;;;;;;;;5054264;28;20293;-32
2023/03/10 04:55:52;;;;;;;;;;;;;;;;;;5057300;28;19909;-24
2023/03/10 04:58:18;;;;;;;;;;;;;;;;;;5057229;28;19956;-24
2023/03/10 05:00:44;;;;;;;;;;;;;;;;;;5057003;28;19974;-24
2023/03/10 05:03:10;;;;;;;;;;;;;;;;;;5056953;28;20267;-33
2023/03/10 05:05:36;;;;;;;;;;;;;;;;;;5056809;28;19975;-24
2023/03/10 05:08:02;;;;;;;;;;;;;;;;;;5057257;28;19980;-24
2023/03/10 05:10:28;;;;;;;;;;;;;;;;;;5056955;28;19999;-24
2023/03/10 05:12:54;;;;;;;;;;;;;;;;;;5056738;28;20239;-24
2023/03/10 05:15:20;;;;;;;;;;;;;;;;;;5056852;28;19991;-24
2023/03/10 05:17:46;;;;;;;;;;;;;;;;;;5056703;28;20222;-24
2023/03/10 05:20:13;;;;;;;;;;;;;;;;;;5056610;28;19909;-24
2023/03/10 05:22:39;;;;;;;;;;;;;;;;;;5056355;28;19912;-24
2023/03/10 05:25:05;;;;;;;;;;;;;;;;;;5056650;28;19909;-24
2023/03/10 05:27:31;;;;;;;;;;;;;;;;;;5056327;28;20266;-24
2023/03/10 05:29:57;;;;;;;;;;;;;;;;;;5056473;28;19909;-24
2023/03/10 05:32:22;;;;;;;;;;;;;;;;;;5056501;28;19919;-24
2023/03/10 05:34:48;;;;;;;;;;;;;;;;;;5056876;28;19908;-24
2023/03/10 05:37:14;;;;;;;;;;;;;;;;;;5056433;28;19909;-24
2023/03/10 05:39:42;;;;;;;;;;;;;;;;;;5056422;28;20343;-25
2023/03/10 05:42:08;;;;;;;;;;;;;;;;;;5056258;28;19913;-26
2023/03/10 05:44:34;;;;;;;;;;;;;;;;;;5056890;28;19943;-26
2023/03/10 05:47:00;;;;;;;;;;;;;;;;;;5056314;28;19916;-25
2023/03/10 05:49:26;;;;;;;;;;;;;;;;;;5056099;28;20343;-23
2023/03/10 05:51:52;;;;;;;;;;;;;;;;;;5055961;28;19932;-23
2023/03/10 05:54:18;;;;;;;;;;;;;;;;;;5056103;28;19909;-23
2023/03/10 05:56:44;;;;;;;;;;;;;;;;;;5056033;28;19916;-23
2023/03/10 05:59:10;;;;;;;;;;;;;;;;;;5054992;28;19962;-23
2023/03/10 06:01:36;;;;;;;;;;;;;;;;;;5056285;28;19932;-23
2023/03/10 06:04:02;;;;;;;;;;;;;;;;;;5055301;28;19949;-23
2023/03/10 06:06:29;;;;;;;;;;;;;;;;;;5056148;28;19995;-23
2023/03/10 06:08:55;;;;;;;;;;;;;;;;;;5054855;28;19916;-23
2023/03/10 06:11:20;;;;;;;;;;;;;;;;;;5055822;28;19908;-23
2023/03/10 06:13:46;;;;;;;;;;;;;;;;;;5056025;28;19919;-23
2023/03/10 06:16:12;;;;;;;;;;;;;;;;;;5055715;28;19932;-23
2023/03/10 06:18:38;;;;;;;;;;;;;;;;;;5055938;28;19925;-23
2023/03/10 06:21:05;;;;;;;;;;;;;;;;;;5054905;28;20335;-25
2023/03/10 06:23:31;;;;;;;;;;;;;;;;;;5055791;28;19916;-26
2023/03/10 06:25:57;;;;;;;;;;;;;;;;;;5055754;28;19909;-25
2023/03/10 06:28:23;;;;;;;;;;;;;;;;;;5055545;28;19909;-26
2023/03/10 06:30:49;;;;;;;;;;;;;;;;;;5055224;28;19912;-23
2023/03/10 06:33:15;;;;;;;;;;;;;;;;;;5055147;28;19909;-23
2023/03/10 06:35:41;;;;;;;;;;;;;;;;;;5055492;28;19919;-23
2023/03/10 06:38:07;;;;;;;;;;;;;;;;;;5055374;28;20359;-24
2023/03/10 06:40:33;;;;;;;;;;;;;;;;;;5055348;28;20225;-24
2023/03/10 06:42:59;;;;;;;;;;;;;;;;;;5055325;28;19920;-24
2023/03/10 06:45:25;;;;;;;;;;;;;;;;;;5054857;28;19916;-24
2023/03/10 06:47:51;;;;;;;;;;;;;;;;;;5054863;28;20323;-24
2023/03/10 06:50:17;;;;;;;;;;;;;;;;;;5054615;28;20406;-23
2023/03/10 06:52:44;;;;;;;;;;;;;;;;;;5054450;28;19909;-23
2023/03/10 06:55:12;;;;;;;;;;;;;;;;;;5054419;28;20004;-24
2023/03/10 06:57:38;;;;;;;;;;;;;;;;;;5054946;28;19909;-24
2023/03/10 07:00:05;;;;;;;;;;;;;;;;;;5053389;28;20379;-24
2023/03/10 07:02:31;;;;;;;;;;;;;;;;;;5054517;28;19977;-25
2023/03/10 07:04:58;;;;;;;;;;;;;;;;;;5054550;28;20011;-24
2023/03/10 07:07:24;;;;;;;;;;;;;;;;;;5054592;28;19967;-25
2023/03/10 07:09:50;;;;;;;;;;;;;;;;;;5054723;28;19969;-24
2023/03/10 07:12:15;;;;;;;;;;;;;;;;;;5053466;28;19928;-25
2023/03/10 07:14:41;;;;;;;;;;;;;;;;;;5054298;28;19919;-25
2023/03/10 07:17:07;;;;;;;;;;;;;;;;;;5053261;28;19991;-25
2023/03/10 07:19:33;;;;;;;;;;;;;;;;;;5053265;28;19917;-26
2023/03/10 07:21:59;;;;;;;;;;;;;;;;;;5054052;28;19936;-25
2023/03/10 07:24:25;;;;;;;;;;;;;;;;;;5054112;28;19908;-25
2023/03/10 07:26:51;;;;;;;;;;;;;;;;;;5053744;28;20343;-25
2023/03/10 07:29:17;;;;;;;;;;;;;;;;;;5053836;28;20263;-24
2023/03/10 07:31:43;;;;;;;;;;;;;;;;;;5053685;28;19909;-25
2023/03/10 07:34:09;;;;;;;;;;;;;;;;;;5053475;28;20209;-24
2023/03/10 07:36:35;;;;;;;;;;;;;;;;;;5053751;28;19909;-24
2023/03/10 07:39:01;;;;;;;;;;;;;;;;;;5054560;28;19935;-25
2023/03/10 07:41:27;;;;;;;;;;;;;;;;;;5054301;28;20255;-25
2023/03/10 07:43:53;;;;;;;;;;;;;;;;;;5054173;28;19909;-25
2023/03/10 07:46:19;;;;;;;;;;;;;;;;;;5054065;28;19962;-25
2023/03/10 07:48:45;;;;;;;;;;;;;;;;;;5054115;28;19909;-24
2023/03/10 07:51:11;;;;;;;;;;;;;;;;;;5054553;28;19919;-25
2023/03/10 07:53:37;;;;;;;;;;;;;;;;;;5054220;28;20237;-25
2023/03/10 07:56:03;;;;;;;;;;;;;;;;;;5054345;28;19915;-25
2023/03/10 07:58:29;;;;;;;;;;;;;;;;;;5054335;28;19927;-25
2023/03/10 08:00:55;;;;;;;;;;;;;;;;;;5054268;28;19908;-25
2023/03/10 08:03:21;;;;;;;;;;;;;;;;;;5052819;28;19916;-24
2023/03/10 08:05:47;;;;;;;;;;;;;;;;;;5054499;28;19912;-25
2023/03/10 08:08:13;;;;;;;;;;;;;;;;;;5054010;28;20240;-24
2023/03/10 08:10:39;;;;;;;;;;;;;;;;;;5054253;28;19913;-25
2023/03/10 08:13:05;;;;;;;;;;;;;;;;;;5053683;28;19909;-24
2023/03/10 08:15:31;;;;;;;;;;;;;;;;;;5053823;28;20204;-24
2023/03/10 08:17:57;;;;;;;;;;;;;;;;;;5053769;28;19959;-25
2023/03/10 08:20:23;;;;;;;;;;;;;;;;;;5054160;28;19917;-25
2023/03/10 08:22:49;;;;;;;;;;;;;;;;;;5053682;28;20320;-25
2023/03/10 08:25:15;;;;;;;;;;;;;;;;;;5053678;28;19909;-24
2023/03/10 08:27:41;;;;;;;;;;;;;;;;;;5053743;28;19915;-25
2023/03/10 08:30:07;;;;;;;;;;;;;;;;;;5057907;28;19932;-24
2023/03/10 08:32:33;;;;;;;;;;;;;;;;;;5057696;28;19952;-24
2023/03/10 08:34:59;;;;;;;;;;;;;;;;;;5057519;28;19984;-24
2023/03/10 08:37:25;;;;;;;;;;;;;;;;;;5057394;28;19944;-25
2023/03/10 08:39:53;;;;;;;;;;;;;;;;;;5057425;28;19971;-24
2023/03/10 08:42:18;;;;;;;;;;;;;;;;;;5057489;28;19909;-24
2023/03/10 08:44:44;;;;;;;;;;;;;;;;;;5057414;28;19962;-24
2023/03/10 08:47:10;;;;;;;;;;;;;;;;;;5057248;28;19916;-25
2023/03/10 08:49:36;;;;;;;;;;;;;;;;;;5057436;28;19916;-24
2023/03/10 08:52:02;;;;;;;;;;;;;;;;;;5056029;28;20331;-25
2023/03/10 08:54:28;;;;;;;;;;;;;;;;;;5056220;28;19920;-24
2023/03/10 08:56:54;;;;;;;;;;;;;;;;;;5057354;28;19951;-25
2023/03/10 08:59:20;;;;;;;;;;;;;;;;;;5057112;28;19916;-26
2023/03/10 09:01:46;;;;;;;;;;;;;;;;;;5057138;28;19909;-25
2023/03/10 09:04:12;;;;;;;;;;;;;;;;;;5055623;28;20255;-25
2023/03/10 09:06:38;;;;;;;;;;;;;;;;;;5056743;28;19920;-25
2023/03/10 09:09:04;;;;;;;;;;;;;;;;;;5057115;28;19909;-25
2023/03/10 09:11:31;;;;;;;;;;;;;;;;;;5056644;28;19909;-24
2023/03/10 09:13:57;;;;;;;;;;;;;;;;;;5056599;28;19909;-24
2023/03/10 09:16:23;;;;;;;;;;;;;;;;;;5055466;28;19920;-31
2023/03/10 09:18:49;;;;;;;;;;;;;;;;;;5056710;28;19952;-24
2023/03/10 09:21:15;;;;;;;;;;;;;;;;;;5056694;28;20288;-24
2023/03/10 09:23:41;;;;;;;;;;;;;;;;;;5055420;28;19909;-24
2023/03/10 09:26:06;;;;;;;;;;;;;;;;;;5056786;28;19935;-25
2023/03/10 09:28:32;;;;;;;;;;;;;;;;;;5056693;28;20247;-24
2023/03/10 09:30:58;;;;;;;;;;;;;;;;;;5055353;28;20243;-26
2023/03/10 09:33:24;;;;;;;;;;;;;;;;;;5055247;28;19951;-24
2023/03/10 09:35:50;;;;;;;;;;;;;;;;;;5056271;28;20020;-25
2023/03/10 09:38:16;;;;;;;;;;;;;;;;;;5056329;28;19913;-25
2023/03/10 09:40:42;;;;;;;;;;;;;;;;;;5055487;28;20053;-25
2023/03/10 09:43:08;;;;;;;;;;;;;;;;;;5056135;28;19919;-25
2023/03/10 09:45:34;;;;;;;;;;;;;;;;;;5055702;28;19954;-25
2023/03/10 09:48:00;;;;;;;;;;;;;;;;;;5055677;28;20289;-25
2023/03/10 09:50:26;;;;;;;;;;;;;;;;;;5055635;28;19909;-25
2023/03/10 09:52:52;;;;;;;;;;;;;;;;;;5054328;28;19909;-25
2023/03/10 09:55:19;;;;;;;;;;;;;;;;;;5055557;28;19959;-25
2023/03/10 09:57:45;;;;;;;;;;;;;;;;;;5055505;28;20371;-24
2023/03/10 10:00:11;;;;;;;;;;;;;;;;;;5055539;28;19947;-24
2023/03/10 10:02:37;;;;;;;;;;;;;;;;;;5055341;28;19966;-25
2023/03/10 10:05:03;;;;;;;;;;;;;;;;;;5055162;28;19916;-25
2023/03/10 10:07:29;;;;;;;;;;;;;;;;;;5055035;28;19944;-25
2023/03/10 10:09:55;;;;;;;;;;;;;;;;;;5055498;28;19908;-25
2023/03/10 10:12:22;;;;;;;;;;;;;;;;;;5055347;28;20055;-25
2023/03/10 10:14:49;;;;;;;;;;;;;;;;;;5054038;28;19919;-24
2023/03/10 10:17:15;;;;;;;;;;;;;;;;;;5055168;28;19956;-24
2023/03/10 10:19:41;;;;;;;;;;;;;;;;;;5055389;28;20059;-24
2023/03/10 10:22:07;;;;;;;;;;;;;;;;;;5055738;28;19908;-24
2023/03/10 10:24:33;;;;;;;;;;;;;;;;;;5055240;28;20003;-24
2023/03/10 10:26:59;;;;;;;;;;;;;;;;;;5055987;28;19998;-24
2023/03/10 10:29:25;;;;;;;;;;;;;;;;;;5055577;28;19909;-24
2023/03/10 10:31:51;;;;;;;;;;;;;;;;;;5055607;28;19909;-24
2023/03/10 10:34:17;;;;;;;;;;;;;;;;;;5055427;28;20340;-24
2023/03/10 10:36:43;;;;;;;;;;;;;;;;;;5055364;28;19970;-24
2023/03/10 10:39:09;;;;;;;;;;;;;;;;;;5056231;28;20019;-24
2023/03/10 10:41:35;;;;;;;;;;;;;;;;;;5055245;28;19909;-24
2023/03/10 10:44:01;;;;;;;;;;;;;;;;;;5055436;28;19966;-24
2023/03/10 10:46:27;;;;;;;;;;;;;;;;;;5055491;28;19924;-24
2023/03/10 10:48:53;;;;;;;;;;;;;;;;;;5054176;28;19948;-24
2023/03/10 10:51:19;;;;;;;;;;;;;;;;;;5054893;28;20283;-24
2023/03/10 10:53:45;;;;;;;;;;;;;;;;;;5055073;28;19936;-24
2023/03/10 10:56:11;;;;;;;;;;;;;;;;;;5055065;28;19939;-24
2023/03/10 10:58:37;;;;;;;;;;;;;;;;;;5055018;28;19924;-24
2023/03/10 11:01:03;;;;;;;;;;;;;;;;;;5054811;28;20331;-24
2023/03/10 11:03:29;;;;;;;;;;;;;;;;;;5054423;28;19981;-24
2023/03/10 11:05:55;;;;;;;;;;;;;;;;;;5054880;28;19909;-28
2023/03/10 11:08:21;;;;;;;;;;;;;;;;;;5054584;28;20394;-24
2023/03/10 11:10:47;;;;;;;;;;;;;;;;;;5054544;28;20019;-24
2023/03/10 11:13:13;;;;;;;;;;;;;;;;;;5054592;28;20447;-24
2023/03/10 11:15:39;;;;;;;;;;;;;;;;;;5054319;28;19952;-24
2023/03/10 11:18:05;;;;;;;;;;;;;;;;;;5053400;28;19963;-27
2023/03/10 11:20:33;;;;;;;;;;;;;;;;;;5053595;28;20339;-24
2023/03/10 11:22:59;;;;;;;;;;;;;;;;;;5054242;28;19917;-24
2023/03/10 11:25:25;;;;;;;;;;;;;;;;;;5054513;28;20004;-24
2023/03/10 11:27:51;;;;;;;;;;;;;;;;;;5054235;28;20339;-24
2023/03/10 11:30:17;;;;;;;;;;;;;;;;;;5054364;28;19940;-24
2023/03/10 11:32:43;;;;;;;;;;;;;;;;;;5054109;28;20039;-24
2023/03/10 11:35:09;;;;;;;;;;;;;;;;;;5054098;28;19909;-24
2023/03/10 11:37:35;;;;;;;;;;;;;;;;;;5054174;28;19909;-24
2023/03/10 11:40:06;;;;;;;;;;;;;;;;;;5054039;28;19966;-24
2023/03/10 11:42:32;;;;;;;;;;;;;;;;;;5054335;28;20099;-24
2023/03/10 11:44:58;;;;;;;;;;;;;;;;;;5053962;28;19959;-24
2023/03/10 11:47:24;;;;;;;;;;;;;;;;;;5052858;28;20343;-24
2023/03/10 11:49:50;;;;;;;;;;;;;;;;;;5053892;28;19909;-24
2023/03/10 11:52:16;;;;;;;;;;;;;;;;;;5054064;28;19909;-24
2023/03/10 11:54:43;;;;;;;;;;;;;;;;;;5053769;28;19909;-24
2023/03/10 11:57:09;;;;;;;;;;;;;;;;;;5054113;28;20048;-24
2023/03/10 11:59:35;;;;;;;;;;;;;;;;;;5053605;28;19913;-24
2023/03/10 12:02:01;;;;;;;;;;;;;;;;;;5053793;28;19942;-24
2023/03/10 12:04:27;;;;;;;;;;;;;;;;;;5057882;28;19944;-24
2023/03/10 12:06:53;;;;;;;;;;;;;;;;;;5057994;28;19995;-25
2023/03/10 12:09:19;;;;;;;;;;;;;;;;;;5056768;28;19963;-24
2023/03/10 12:11:45;;;;;;;;;;;;;;;;;;5058165;28;20343;-24
2023/03/10 12:14:11;;;;;;;;;;;;;;;;;;5057774;28;19908;-24
2023/03/10 12:16:40;;;;;;;;;;;;;;;;;;5057747;28;20289;-24
2023/03/10 12:19:06;;;;;;;;;;;;;;;;;;5057513;28;19951;-24
2023/03/10 12:21:32;;;;;;;;;;;;;;;;;;5057612;28;20283;-24
2023/03/10 12:23:58;;;;;;;;;;;;;;;;;;5057866;28;19909;-24
2023/03/10 12:26:24;;;;;;;;;;;;;;;;;;5057489;28;19924;-24
2023/03/10 12:28:50;;;;;;;;;;;;;;;;;;5057663;28;20375;-24
2023/03/10 12:31:16;;;;;;;;;;;;;;;;;;5057685;28;20375;-24
2023/03/10 12:33:42;;;;;;;;;;;;;;;;;;5057843;28;20070;-24
2023/03/10 12:36:08;;;;;;;;;;;;;;;;;;5057604;28;20244;-25
2023/03/10 12:38:34;;;;;;;;;;;;;;;;;;5057535;28;20030;-24
2023/03/10 12:41:00;;;;;;;;;;;;;;;;;;5057747;28;19919;-25
2023/03/10 12:43:26;;;;;;;;;;;;;;;;;;5057366;28;19944;-24
2023/03/10 12:45:52;;;;;;;;;;;;;;;;;;5056389;28;19947;-25
2023/03/10 12:48:21;;;;;;;;;;;;;;;;;;5056122;28;19909;-25
2023/03/10 12:50:47;;;;;;;;;;;;;;;;;;5057320;28;20255;-25
2023/03/10 12:53:12;;;;;;;;;;;;;;;;;;5057428;28;19916;-25
2023/03/10 12:55:39;;;;;;;;;;;;;;;;;;5057189;28;20366;-25
2023/03/10 12:58:05;;;;;;;;;;;;;;;;;;5057062;28;19920;-24
2023/03/10 13:00:31;;;;;;;;;;;;;;;;;;5057077;28;19908;-25
2023/03/10 13:02:57;;;;;;;;;;;;;;;;;;5056809;28;19915;-25
2023/03/10 13:05:23;;;;;;;;;;;;;;;;;;5056596;28;19960;-25
2023/03/10 13:07:49;;;;;;;;;;;;;;;;;;5056962;28;19955;-25
2023/03/10 13:10:15;;;;;;;;;;;;;;;;;;5056978;28;19915;-24
2023/03/10 13:12:41;;;;;;;;;;;;;;;;;;5056918;28;19909;-24
2023/03/10 13:15:07;;;;;;;;;;;;;;;;;;5054826;28;19920;-25
2023/03/10 13:17:33;;;;;;;;;;;;;;;;;;5056840;28;19909;-25
2023/03/10 13:19:59;;;;;;;;;;;;;;;;;;5056605;28;19931;-25
2023/03/10 13:22:25;;;;;;;;;;;;;;;;;;5056951;28;19919;-24
2023/03/10 13:24:51;;;;;;;;;;;;;;;;;;5056885;28;19908;-25
2023/03/10 13:27:22;;;;;;;;;;;;;;;;;;5056677;28;19938;-25
2023/03/10 13:29:48;;;;;;;;;;;;;;;;;;5056526;28;19920;-25
2023/03/10 13:32:14;;;;;;;;;;;;;;;;;;5056202;28;19909;-25
2023/03/10 13:34:40;;;;;;;;;;;;;;;;;;5056414;28;19913;-25
2023/03/10 13:37:06;;;;;;;;;;;;;;;;;;5056450;28;19909;-26
2023/03/10 13:39:32;;;;;;;;;;;;;;;;;;5056232;28;19924;-25
2023/03/10 13:41:58;;;;;;;;;;;;;;;;;;5055995;28;20248;-25
2023/03/10 13:44:24;;;;;;;;;;;;;;;;;;5056204;28;19912;-25
2023/03/10 13:46:50;;;;;;;;;;;;;;;;;;5055050;28;19956;-26
2023/03/10 13:49:17;;;;;;;;;;;;;;;;;;5056153;28;19909;-25
2023/03/10 13:51:42;;;;;;;;;;;;;;;;;;5055930;28;19962;-25
2023/03/10 13:54:08;;;;;;;;;;;;;;;;;;5055938;28;20290;-25
2023/03/10 13:56:34;;;;;;;;;;;;;;;;;;5055563;28;20258;-25
2023/03/10 13:59:01;;;;;;;;;;;;;;;;;;5055252;28;19917;-25
2023/03/10 14:01:27;;;;;;;;;;;;;;;;;;5055863;28;19984;-26
2023/03/10 14:03:53;;;;;;;;;;;;;;;;;;5055741;28;20384;-26
2023/03/10 14:06:19;;;;;;;;;;;;;;;;;;5056029;28;19924;-25
2023/03/10 14:08:45;;;;;;;;;;;;;;;;;;5055821;28;19930;-25
2023/03/10 14:11:11;;;;;;;;;;;;;;;;;;5054730;28;20293;-25
2023/03/10 14:13:37;;;;;;;;;;;;;;;;;;5054672;28;19940;-24
2023/03/10 14:16:03;;;;;;;;;;;;;;;;;;5055778;28;19909;-25
2023/03/10 14:18:29;;;;;;;;;;;;;;;;;;5056168;28;20300;-24
2023/03/10 14:20:55;;;;;;;;;;;;;;;;;;5054506;28;20055;-25
2023/03/10 14:23:21;;;;;;;;;;;;;;;;;;5055361;28;19912;-25
2023/03/10 14:25:47;;;;;;;;;;;;;;;;;;5055338;28;19909;-25
2023/03/10 14:28:13;;;;;;;;;;;;;;;;;;5055652;28;19913;-25
2023/03/10 14:30:39;;;;;;;;;;;;;;;;;;5055503;28;19923;-25
2023/03/10 14:33:05;;;;;;;;;;;;;;;;;;5055496;28;19967;-25
2023/03/10 14:35:31;;;;;;;;;;;;;;;;;;5055361;28;20302;-25
2023/03/10 14:37:57;;;;;;;;;;;;;;;;;;5055241;28;20250;-25
2023/03/10 14:40:23;;;;;;;;;;;;;;;;;;5055180;28;19955;-25
2023/03/10 14:42:49;;;;;;;;;;;;;;;;;;5055183;28;19966;-25
2023/03/10 14:45:15;;;;;;;;;;;;;;;;;;5055174;28;19920;-25
2023/03/10 14:47:41;;;;;;;;;;;;;;;;;;5055195;28;19913;-25
2023/03/10 14:50:07;;;;;;;;;;;;;;;;;;5054766;28;19920;-25
2023/03/10 14:52:33;;;;;;;;;;;;;;;;;;5053795;28;19916;-25
2023/03/10 14:54:59;;;;;;;;;;;;;;;;;;5055208;28;20113;-25
2023/03/10 14:57:25;;;;;;;;;;;;;;;;;;5054837;28;20235;-25
2023/03/10 14:59:51;;;;;;;;;;;;;;;;;;5054638;28;19943;-25
2023/03/10 15:02:17;;;;;;;;;;;;;;;;;;5053632;28;19910;-25
2023/03/10 15:04:43;;;;;;;;;;;;;;;;;;5054539;28;19971;-25
2023/03/10 15:07:10;;;;;;;;;;;;;;;;;;5054671;28;19952;-25
2023/03/10 15:09:36;;;;;;;;;;;;;;;;;;5054551;28;19909;-25
2023/03/10 15:12:02;;;;;;;;;;;;;;;;;;5054574;28;19919;-25
2023/03/10 15:14:28;;;;;;;;;;;;;;;;;;5054680;28;19916;-25
2023/03/10 15:16:54;;;;;;;;;;;;;;;;;;5054646;28;19919;-25
2023/03/10 15:19:20;;;;;;;;;;;;;;;;;;5054541;28;20012;-25
2023/03/10 15:21:46;;;;;;;;;;;;;;;;;;5054151;28;19971;-25
2023/03/10 15:24:12;;;;;;;;;;;;;;;;;;5054433;28;19912;-25
2023/03/10 15:26:38;;;;;;;;;;;;;;;;;;5054271;28;19928;-25
2023/03/10 15:29:04;;;;;;;;;;;;;;;;;;5054578;28;19909;-25
2023/03/10 15:31:30;;;;;;;;;;;;;;;;;;5055466;28;19913;-25
2023/03/10 15:33:56;;;;;;;;;;;;;;;;;;5054449;28;19920;-25
2023/03/10 15:36:21;;;;;;;;;;;;;;;;;;5053132;28;19912;-25
2023/03/10 15:38:47;;;;;;;;;;;;;;;;;;5053784;28;20344;-25
2023/03/10 15:41:15;;;;;;;;;;;;;;;;;;5054147;28;19909;-25
2023/03/10 15:43:41;;;;;;;;;;;;;;;;;;5053993;28;19915;-25
2023/03/10 15:46:08;;;;;;;;;;;;;;;;;;5053891;28;19952;-25
2023/03/10 15:48:34;;;;;;;;;;;;;;;;;;5053995;28;19916;-25
2023/03/10 15:51:00;;;;;;;;;;;;;;;;;;5053980;28;19912;-25
2023/03/10 15:53:26;;;;;;;;;;;;;;;;;;5053814;28;20296;-25
2023/03/10 15:55:53;;;;;;;;;;;;;;;;;;5054117;28;19971;-25
2023/03/10 15:58:19;;;;;;;;;;;;;;;;;;5053996;28;20290;-25
2023/03/10 16:00:45;;;;;;;;;;;;;;;;;;5054033;28;20001;-25
2023/03/10 16:03:11;;;;;;;;;;;;;;;;;;5053785;28;19993;-25
2023/03/10 16:05:37;;;;;;;;;;;;;;;;;;5053723;28;19960;-25
2023/03/10 16:08:05;;;;;;;;;;;;;;;;;;5053925;28;19978;-25
2023/03/10 16:10:31;;;;;;;;;;;;;;;;;;5054170;28;20288;-25
2023/03/10 16:12:58;;;;;;;;;;;;;;;;;;5053857;28;19974;-25
2023/03/10 16:15:24;;;;;;;;;;;;;;;;;;5053262;28;20273;-25
2023/03/10 16:17:50;;;;;;;;;;;;;;;;;;5051912;28;19948;-26
2023/03/10 16:20:17;;;;;;;;;;;;;;;;;;5052956;28;19963;-25
2023/03/10 16:22:43;;;;;;;;;;;;;;;;;;5053044;28;19920;-26
2023/03/10 16:25:09;;;;;;;;;;;;;;;;;;5053250;28;20008;-23
2023/03/10 16:27:35;;;;;;;;;;;;;;;;;;5052899;28;19912;-24
2023/03/10 16:30:02;;;;;;;;;;;;;;;;;;5053240;28;19966;-24
2023/03/10 16:32:28;;;;;;;;;;;;;;;;;;5053061;28;19921;-24
2023/03/10 16:34:54;;;;;;;;;;;;;;;;;;5052819;28;19909;-24
2023/03/10 16:37:20;;;;;;;;;;;;;;;;;;5053271;28;20259;-24